Terminal Aerodrome Forecast
Issued by NWS

Home | Current Version | Previous Version | Text Only | Print | Product List | Glossary On
Versions: 1 2 3 4 5 6 7 8 9 10 11 12 13 14 15 16 17 18 19 20 21 22 23
000
FTUS43 KDLH 281700
TAFHIB
TAF
KHIB 281724Z 2818/2918 19008G14KT P6SM SKC
     FM290300 19015G25KT P6SM SCT030 BKN100 WS020/20045KT
     FM290800 20012G22KT P6SM -RA BKN025 OVC040
     FM291200 27012KT P6SM -SN OVC025
     FM291500 30013G23KT P6SM -RASN SCT025 OVC040=

USA.gov is the U.S. government's official web portal to all federal, state and local government web resources and services.